createdAt,value
2022-11-12T00:04:10.453Z,18.95
2022-11-12T00:09:22.228Z,19.65
2022-11-12T00:14:37.517Z,18.67
2022-11-12T00:19:49.689Z,19.88
2022-11-12T00:25:05.059Z,19.45
2022-11-12T00:30:18.794Z,19.38
2022-11-12T00:35:34.596Z,16.42
2022-11-12T00:40:48.640Z,18.48
2022-11-12T00:46:02.702Z,18.70
2022-11-12T00:51:18.210Z,18.55
2022-11-12T00:56:35.324Z,19.27
2022-11-12T01:02:02.339Z,19.15
2022-11-12T01:07:19.316Z,20.27
2022-11-12T01:12:34.661Z,21.25
2022-11-12T01:17:55.784Z,21.17
2022-11-12T01:23:08.113Z,22.13
2022-11-12T01:28:20.211Z,21.05
2022-11-12T01:33:33.878Z,22.55
2022-11-12T01:38:48.827Z,21.80
2022-11-12T01:44:16.872Z,22.77
2022-11-12T01:49:40.864Z,24.70
2022-11-12T01:54:59.296Z,23.05
2022-11-12T02:00:14.566Z,22.75
2022-11-12T02:05:29.865Z,22.92
2022-11-12T02:10:44.552Z,23.67
2022-11-12T02:15:58.234Z,24.73
2022-11-12T02:21:16.268Z,24.33
2022-11-12T02:26:34.454Z,24.08
2022-11-12T02:31:54.047Z,23.05
2022-11-12T02:37:06.837Z,21.52
2022-11-12T02:42:23.216Z,16.42
2022-11-12T02:47:35.981Z,15.25
2022-11-12T02:52:48.512Z,16.65
2022-11-12T02:58:13.459Z,16.40
2022-11-12T03:03:54.845Z,14.63
2022-11-12T03:09:18.269Z,17.23
2022-11-12T03:15:19.584Z,16.58
2022-11-12T03:21:40.456Z,17.05
2022-11-12T03:27:16.619Z,20.70
2022-11-12T03:32:36.606Z,18.98
2022-11-12T03:38:21.209Z,18.08
2022-11-12T03:44:00.981Z,20.33
2022-11-12T03:49:44.575Z,22.02
2022-11-12T03:55:19.430Z,18.13
2022-11-12T04:00:33.799Z,16.20
2022-11-12T04:06:09.006Z,17.85
2022-11-12T04:11:25.028Z,16.15
2022-11-12T04:17:15.954Z,18.40
2022-11-12T04:22:40.715Z,14.98
2022-11-12T04:28:04.192Z,17.40
2022-11-12T04:33:19.618Z,16.40
2022-11-12T04:38:56.414Z,17.55
2022-11-12T05:02:14.525Z,18.50
2022-11-12T05:08:02.960Z,16.20
2022-11-12T05:35:30.794Z,21.63
2022-11-12T05:40:49.981Z,23.55
2022-11-12T05:46:01.605Z,23.35
2022-11-12T05:51:14.829Z,25.13
2022-11-12T05:56:27.961Z,25.08
2022-11-12T06:01:44.179Z,29.50
2022-11-12T06:06:56.249Z,27.80
2022-11-12T06:12:09.750Z,23.65
2022-11-12T06:17:21.866Z,20.25
2022-11-12T06:22:34.797Z,20.70
2022-11-12T06:27:48.353Z,20.95
2022-11-12T06:33:02.823Z,22.48
2022-11-12T06:38:14.750Z,22.17
2022-11-12T06:43:30.101Z,24.13
2022-11-12T06:48:44.256Z,24.73
2022-11-12T06:53:57.442Z,22.70
2022-11-12T06:59:12.287Z,22.27
2022-11-12T07:04:25.734Z,21.58
2022-11-12T07:09:37.335Z,21.02
2022-11-12T07:14:50.442Z,20.88
2022-11-12T07:20:03.873Z,26.48
2022-11-12T07:25:17.499Z,24.00
2022-11-12T07:30:37.060Z,23.88
2022-11-12T07:35:50.205Z,23.27
2022-11-12T07:41:06.781Z,25.60
2022-11-12T07:46:23.759Z,24.98
2022-11-12T07:51:35.423Z,25.52
2022-11-12T07:56:47.602Z,25.42
2022-11-12T08:02:01.013Z,23.70
2022-11-12T08:07:12.877Z,25.13
2022-11-12T08:12:24.976Z,25.85
2022-11-12T08:17:41.036Z,26.10
2022-11-12T08:22:52.798Z,25.80
2022-11-12T08:28:05.835Z,26.65
2022-11-12T08:33:22.038Z,25.45
2022-11-12T08:38:34.120Z,25.98
2022-11-12T08:43:49.428Z,26.50
2022-11-12T08:49:02.962Z,27.35
2022-11-12T08:54:15.020Z,26.60
2022-11-12T08:59:29.121Z,27.35
2022-11-12T09:04:42.288Z,26.70
2022-11-12T09:09:54.150Z,27.80
2022-11-12T09:15:36.284Z,28.25
2022-11-12T09:20:40.763Z,27.38
2022-11-12T09:25:55.790Z,27.08
2022-11-12T09:31:09.839Z,27.25
2022-11-12T09:36:26.273Z,25.63
2022-11-12T09:41:41.057Z,27.08
2022-11-12T09:46:56.714Z,26.95
2022-11-12T09:52:18.227Z,28.67
2022-11-12T09:57:30.801Z,25.42
2022-11-12T10:02:50.853Z,25.88
2022-11-12T10:08:30.581Z,25.87
2022-11-12T10:13:52.411Z,26.08
2022-11-12T10:19:27.489Z,24.00
2022-11-12T10:24:43.074Z,20.55
2022-11-12T10:30:00.480Z,20.40
2022-11-12T10:35:13.171Z,23.42
2022-11-12T10:40:37.566Z,22.80
2022-11-12T10:45:51.836Z,22.35
2022-11-12T10:51:05.174Z,20.83
2022-11-12T10:56:29.329Z,21.92
2022-11-12T11:01:45.702Z,22.52
2022-11-12T11:07:08.397Z,21.70
2022-11-12T11:12:29.590Z,20.95
2022-11-12T11:17:41.593Z,21.55
2022-11-12T11:22:57.627Z,20.33
2022-11-12T11:28:23.953Z,20.02
2022-11-12T11:33:49.206Z,21.55
2022-11-12T11:39:06.261Z,19.67
2022-11-12T11:44:30.126Z,18.73
2022-11-12T11:50:04.567Z,18.25
2022-11-12T11:55:38.651Z,16.95
2022-11-12T12:01:01.970Z,18.50
2022-11-12T12:06:23.140Z,17.67
2022-11-12T12:11:44.451Z,18.02
2022-11-12T12:17:08.487Z,18.05
2022-11-12T12:22:25.884Z,17.38
2022-11-12T12:27:41.751Z,16.75
2022-11-12T12:33:00.523Z,16.73
2022-11-12T12:38:16.984Z,18.05
2022-11-12T12:43:35.921Z,17.60
2022-11-12T12:48:51.785Z,17.55
2022-11-12T12:54:03.692Z,17.38
2022-11-12T12:59:24.165Z,16.27
2022-11-12T13:04:55.171Z,16.92
2022-11-12T13:10:35.896Z,15.73
2022-11-12T13:15:53.241Z,15.00
2022-11-12T13:21:14.880Z,16.52
2022-11-12T13:26:54.963Z,15.38
2022-11-12T13:32:45.144Z,15.82
2022-11-12T13:38:06.488Z,16.63
2022-11-12T13:43:35.689Z,19.60
2022-11-12T13:48:51.910Z,17.98
2022-11-12T13:54:30.746Z,18.15
2022-11-12T13:59:47.315Z,18.45
2022-11-12T14:04:59.384Z,19.80
2022-11-12T14:10:33.315Z,17.92
2022-11-12T14:16:06.749Z,18.88
2022-11-12T14:21:25.457Z,20.65
2022-11-12T14:26:41.216Z,19.30
2022-11-12T14:32:07.976Z,20.60
2022-11-12T14:37:39.955Z,21.17
2022-11-12T14:42:56.936Z,23.15
2022-11-12T14:48:11.391Z,24.38
2022-11-12T14:53:28.686Z,24.17
2022-11-12T14:58:43.472Z,25.17
2022-11-12T15:04:21.542Z,22.60
2022-11-12T15:09:37.728Z,27.27
2022-11-12T15:14:53.408Z,24.85
2022-11-12T15:20:15.162Z,24.50
2022-11-12T15:25:30.185Z,24.35
2022-11-12T15:30:43.731Z,25.00
2022-11-12T15:36:07.688Z,24.75
2022-11-12T15:41:28.645Z,23.35
2022-11-12T15:46:42.699Z,24.90
2022-11-12T15:51:54.745Z,24.27
2022-11-12T15:57:14.920Z,26.80
2022-11-12T16:02:41.486Z,28.58
2022-11-12T16:07:53.631Z,31.08
2022-11-12T16:13:08.320Z,33.00
2022-11-12T16:18:23.611Z,33.15
2022-11-12T16:23:40.808Z,37.15
2022-11-12T16:28:52.505Z,56.72
2022-11-12T16:34:10.166Z,48.47
2022-11-12T16:39:25.635Z,52.28
2022-11-12T16:44:46.626Z,48.28
2022-11-12T16:50:01.159Z,44.45
2022-11-12T16:55:13.247Z,56.67
2022-11-12T17:00:29.787Z,69.47
2022-11-12T17:05:51.948Z,78.00
2022-11-12T17:11:10.714Z,74.40
2022-11-12T17:16:23.492Z,79.95
2022-11-12T17:21:37.866Z,74.63
2022-11-12T17:26:49.891Z,70.47
2022-11-12T17:32:04.464Z,73.50
2022-11-12T17:37:17.555Z,74.22
2022-11-12T17:42:43.130Z,75.63
2022-11-12T17:47:55.213Z,74.50
2022-11-12T17:53:08.546Z,62.72
2022-11-12T17:58:20.348Z,55.38
2022-11-12T18:03:41.233Z,46.38
2022-11-12T18:08:56.364Z,56.45
2022-11-12T18:14:08.774Z,57.00
2022-11-12T18:19:20.550Z,72.47
2022-11-12T18:24:34.286Z,84.63
2022-11-12T18:29:47.124Z,74.00
2022-11-12T18:34:58.988Z,52.10
2022-11-12T18:40:12.489Z,29.48
2022-11-12T18:45:24.303Z,34.40
2022-11-12T18:50:36.375Z,31.75
2022-11-12T18:55:49.813Z,31.58
2022-11-12T19:01:03.873Z,43.83
2022-11-12T19:06:16.773Z,31.63
2022-11-12T19:11:30.377Z,30.20
2022-11-12T19:16:44.899Z,30.60
2022-11-12T19:22:00.092Z,27.40
2022-11-12T19:27:13.414Z,27.67
2022-11-12T19:32:24.951Z,33.53
2022-11-12T19:37:36.635Z,32.47
2022-11-12T19:42:52.284Z,35.25
2022-11-12T19:48:04.542Z,29.88
2022-11-12T19:53:16.569Z,35.00
2022-11-12T19:58:31.945Z,38.10
2022-11-12T20:03:44.110Z,39.40
2022-11-12T20:08:59.611Z,43.90
2022-11-12T20:14:12.792Z,39.47
2022-11-12T20:19:24.700Z,37.35
2022-11-12T20:24:36.431Z,36.88
2022-11-12T20:29:52.471Z,46.00
2022-11-12T20:35:10.356Z,44.13
2022-11-12T20:40:25.854Z,50.63
2022-11-12T20:45:39.114Z,74.00
2022-11-12T20:51:16.756Z,64.45
2022-11-12T20:56:26.979Z,58.97
2022-11-12T21:01:40.802Z,46.85
2022-11-12T21:06:53.904Z,56.50
2022-11-12T21:12:06.054Z,41.95
2022-11-12T21:17:19.965Z,43.22
2022-11-12T21:22:33.834Z,36.15
2022-11-12T21:27:45.697Z,33.90
2022-11-12T21:32:58.926Z,34.55
2022-11-12T21:38:10.838Z,34.75
2022-11-12T21:43:22.860Z,35.58
2022-11-12T21:48:36.198Z,34.05
2022-11-12T21:53:48.583Z,35.15
2022-11-12T21:59:01.505Z,34.10
2022-11-12T22:04:18.314Z,35.00
2022-11-12T22:09:32.471Z,35.03
2022-11-12T22:14:44.244Z,35.20
2022-11-12T22:19:57.613Z,35.92
2022-11-12T22:25:14.096Z,36.78
2022-11-12T22:30:25.794Z,34.75
2022-11-12T22:35:39.531Z,39.60
2022-11-12T22:40:51.151Z,51.50
2022-11-12T22:46:07.329Z,43.88
2022-11-12T22:51:22.150Z,43.60
2022-11-12T22:56:34.391Z,39.97
2022-11-12T23:01:46.328Z,41.38
2022-11-12T23:07:01.896Z,44.78
2022-11-12T23:12:16.495Z,105.53
2022-11-12T23:17:33.082Z,88.13
2022-11-12T23:22:46.280Z,59.33
2022-11-12T23:27:57.976Z,52.72
2022-11-12T23:33:10.183Z,62.83
2022-11-12T23:38:23.190Z,63.30
2022-11-12T23:43:35.417Z,63.60
2022-11-12T23:48:47.244Z,74.10
2022-11-12T23:54:00.339Z,83.43
2022-11-12T23:59:11.945Z,52.10
